Time;durP1;ratioP1;P1;durP2;ratioP2;P2;SDS_P1;SDS_P2;PMS_P1;PMS_P2;Temp;Humidity;BMP_temperature;BMP_pressure;BME280_temperature;BME280_humidity;BME280_pressure;Samples;Min_cycle;Max_cycle;Signal;HPM_P1;HPM_P2
2023/03/30 00:00:21;;;;;;;21.25;11.57;;;14.00;99.90;;;;;;5002396;28;20030;-73
2023/03/30 00:02:49;;;;;;;7.78;3.83;;;14.00;99.90;;;;;;5001289;28;20042;-73
2023/03/30 00:05:16;;;;;;;21.35;12.43;;;14.00;99.90;;;;;;4994772;28;20046;-73
2023/03/30 00:07:46;;;;;;;17.45;7.82;;;13.90;99.90;;;;;;5004096;28;20058;-73
2023/03/30 00:10:17;;;;;;;9.10;5.22;;;13.90;99.90;;;;;;4993911;28;20043;-73
2023/03/30 00:12:46;;;;;;;16.70;9.85;;;13.80;99.90;;;;;;5003877;28;20034;-73
2023/03/30 00:15:15;;;;;;;18.45;11.05;;;13.70;99.90;;;;;;5005025;28;20033;-73
2023/03/30 00:17:42;;;;;;;23.80;14.15;;;13.60;99.90;;;;;;5002396;28;20034;-72
2023/03/30 00:20:10;;;;;;;136.23;93.85;;;13.60;99.90;;;;;;5004248;28;20046;-73
2023/03/30 00:22:37;;;;;;;164.98;128.35;;;13.60;99.90;;;;;;5002578;28;20034;-72
2023/03/30 00:25:07;;;;;;;28.20;20.00;;;13.50;99.90;;;;;;5003859;28;20361;-78
2023/03/30 00:27:34;;;;;;;9.38;4.30;;;13.50;99.90;;;;;;4998897;28;20042;-73
2023/03/30 00:30:02;;;;;;;14.80;7.15;;;13.40;99.90;;;;;;5005855;28;20034;-73
2023/03/30 00:32:28;;;;;;;68.22;46.80;;;13.40;99.90;;;;;;4998925;28;20044;-72
2023/03/30 00:34:54;;;;;;;9.30;4.50;;;13.30;99.90;;;;;;5010149;28;20045;-73
2023/03/30 00:37:20;;;;;;;52.80;34.55;;;13.30;99.90;;;;;;5006509;28;20391;-73
2023/03/30 00:39:47;;;;;;;96.32;71.07;;;13.30;99.90;;;;;;4990686;28;20050;-72
2023/03/30 00:42:15;;;;;;;21.38;9.93;;;13.30;99.90;;;;;;4990447;28;20041;-73
2023/03/30 00:45:18;;;;;;;55.25;40.42;;;13.20;99.90;;;;;;5007309;28;20045;-73
2023/03/30 00:47:50;;;;;;;7.65;4.00;;;13.20;99.90;;;;;;5006087;28;20387;-72
2023/03/30 00:50:20;;;;;;;9.73;4.75;;;13.10;99.90;;;;;;5004281;28;20038;-72
2023/03/30 00:52:51;;;;;;;12.15;7.13;;;13.10;99.90;;;;;;4991427;28;20038;-73
2023/03/30 00:55:22;;;;;;;49.05;32.00;;;13.10;99.90;;;;;;4999790;28;20037;-74
2023/03/30 00:57:51;;;;;;;10.05;4.30;;;13.10;99.90;;;;;;4982372;28;20041;-72
2023/03/30 01:00:18;;;;;;;11.98;10.68;;;13.10;99.90;;;;;;5009080;28;20050;-73
2023/03/30 01:02:51;;;;;;;8.82;5.72;;;13.10;99.90;;;;;;5010510;28;20959;-73
2023/03/30 01:05:18;;;;;;;9.20;6.20;;;13.00;99.90;;;;;;5003649;28;20038;-73
2023/03/30 01:07:45;;;;;;;13.43;6.82;;;13.00;99.90;;;;;;5012195;28;20030;-74
2023/03/30 01:10:12;;;;;;;16.70;14.93;;;13.00;99.90;;;;;;5010855;28;20045;-74
2023/03/30 01:12:39;;;;;;;9.15;5.50;;;13.00;99.90;;;;;;5003032;28;20044;-73
2023/03/30 01:15:07;;;;;;;10.07;3.17;;;12.90;99.90;;;;;;5004475;28;20038;-77
2023/03/30 01:18:05;;;;;;;13.88;3.28;;;12.90;99.90;;;;;;5005606;28;20452;-72
2023/03/30 01:21:01;;;;;;;6.63;2.97;;;12.90;99.90;;;;;;5004678;28;20058;-72
2023/03/30 01:24:05;;;;;;;9.10;3.88;;;12.90;99.90;;;;;;4995409;28;20056;-73
2023/03/30 01:26:43;;;;;;;6.45;4.32;;;12.90;99.90;;;;;;5002768;28;20037;-72
2023/03/30 01:29:50;;;;;;;15.18;8.32;;;12.90;99.90;;;;;;5002103;28;20053;-78
2023/03/30 01:32:45;;;;;;;11.50;2.80;;;12.90;99.90;;;;;;5020538;28;20042;-72
2023/03/30 01:35:22;;;;;;;10.35;3.97;;;12.90;99.90;;;;;;4990326;28;20041;-72
2023/03/30 01:38:06;;;;;;;4.63;2.30;;;12.90;99.90;;;;;;4997340;28;20051;-73
2023/03/30 01:40:46;;;;;;;4.93;2.72;;;12.90;99.90;;;;;;5007592;28;20045;-73
2023/03/30 01:43:34;;;;;;;7.25;2.03;;;12.90;99.90;;;;;;5017500;28;20034;-75
2023/03/30 01:46:29;;;;;;;9.50;3.17;;;12.90;99.90;;;;;;5018153;28;20043;-73
2023/03/30 01:49:05;;;;;;;6.47;2.70;;;12.90;99.90;;;;;;5001402;28;20042;-72
2023/03/30 01:51:38;;;;;;;4.97;2.25;;;12.80;99.90;;;;;;5005148;28;20045;-72
2023/03/30 01:54:37;;;;;;;6.10;2.08;;;12.80;99.90;;;;;;5004519;28;20037;-72
2023/03/30 01:57:36;;;;;;;6.45;2.55;;;12.80;99.90;;;;;;4990584;28;20053;-72
2023/03/30 02:00:11;;;;;;;7.45;2.67;;;12.90;99.90;;;;;;5004318;28;20061;-72
2023/03/30 02:02:43;;;;;;;5.95;2.28;;;12.90;99.90;;;;;;5012697;28;20049;-73
2023/03/30 02:05:12;;;;;;;11.05;2.65;;;12.90;99.90;;;;;;5000515;28;20042;-78
2023/03/30 02:07:42;;;;;;;7.70;2.80;;;12.80;99.90;;;;;;5002799;28;20034;-72
2023/03/30 02:10:10;;;;;;;7.35;2.53;;;12.90;99.90;;;;;;5002748;28;20389;-74
2023/03/30 02:12:37;;;;;;;6.03;2.15;;;12.80;99.90;;;;;;5003902;28;20037;-72
2023/03/30 02:15:07;;;;;;;7.90;2.85;;;12.80;99.90;;;;;;5004562;28;20026;-72
2023/03/30 02:17:34;;;;;;;9.88;2.70;;;12.80;99.90;;;;;;5019247;28;20459;-72
2023/03/30 02:20:03;;;;;;;4.85;2.47;;;12.70;99.90;;;;;;5006290;28;20046;-72
2023/03/30 02:22:31;;;;;;;8.20;2.90;;;12.70;99.90;;;;;;5002450;28;20124;-72
2023/03/30 02:24:59;;;;;;;7.93;2.92;;;12.50;99.90;;;;;;4999973;28;20038;-73
2023/03/30 02:27:26;;;;;;;10.00;2.60;;;12.50;99.90;;;;;;5005023;28;20040;-74
2023/03/30 02:29:53;;;;;;;6.22;2.75;;;12.50;99.90;;;;;;5004271;28;20057;-72
2023/03/30 02:32:27;;;;;;;8.95;3.17;;;12.40;99.90;;;;;;4985678;28;20475;-72
2023/03/30 02:35:15;;;;;;;7.65;2.75;;;12.30;1.00;;;;;;4985411;28;20042;-72
2023/03/30 02:38:04;;;;;;;8.88;3.28;;;12.20;1.00;;;;;;5001034;28;20071;-72
2023/03/30 02:40:45;;;;;;;6.10;2.17;;;12.10;1.00;;;;;;4998933;28;20064;-72
2023/03/30 02:44:02;;;;;;;6.00;2.33;;;12.10;1.00;;;;;;4999922;28;20057;-77
2023/03/30 02:46:28;;;;;;;8.63;2.45;;;12.10;1.00;;;;;;4965477;28;20511;-72
2023/03/30 02:49:10;;;;;;;7.75;3.17;;;12.10;1.00;;;;;;4985075;28;20064;-72
2023/03/30 02:51:51;;;;;;;9.00;2.10;;;12.20;1.00;;;;;;4982908;28;20049;-72
2023/03/30 02:54:46;;;;;;;10.30;2.60;;;12.20;1.00;;;;;;5000681;28;20038;-72
2023/03/30 02:57:45;;;;;;;8.00;2.00;;;12.30;1.00;;;;;;4999533;28;20060;-73
2023/03/30 03:00:55;;;;;;;6.88;2.30;;;12.40;1.00;;;;;;4977502;28;20052;-73
2023/03/30 03:03:39;;;;;;;7.60;2.03;;;12.40;1.00;;;;;;4977029;28;20049;-72
2023/03/30 03:06:08;;;;;;;6.53;2.10;;;12.50;1.00;;;;;;4959715;28;20046;-72
2023/03/30 03:08:43;;;;;;;6.88;2.50;;;12.50;1.00;;;;;;4986065;28;20121;-72
2023/03/30 03:11:12;;;;;;;;;;;12.50;1.00;;;;;;5003418;28;20042;-78
2023/03/30 03:13:38;;;;;;;7.75;2.63;;;12.50;1.00;;;;;;4984628;28;19909;-72
2023/03/30 03:16:09;;;;;;;9.98;2.50;;;12.50;1.00;;;;;;4999016;28;20049;-72
2023/03/30 03:18:40;;;;;;;7.03;2.35;;;12.40;1.00;;;;;;4984824;28;20050;-72
2023/03/30 03:21:08;;;;;;;7.38;2.63;;;12.40;1.00;;;;;;5005896;28;20049;-72
2023/03/30 03:23:35;;;;;;;9.63;2.47;;;12.40;1.00;;;;;;5002970;28;20034;-72
2023/03/30 03:26:03;;;;;;;11.20;3.28;;;12.40;1.00;;;;;;5000095;28;20042;-72
2023/03/30 03:28:30;;;;;;;6.55;3.05;;;12.50;1.00;;;;;;5006861;28;20057;-73
2023/03/30 03:31:04;;;;;;;14.38;2.78;;;12.40;1.00;;;;;;5015560;28;20043;-72
2023/03/30 03:33:31;;;;;;;9.57;2.28;;;12.30;1.00;;;;;;5015035;28;20043;-72
2023/03/30 03:36:11;;;;;;;7.32;2.78;;;12.30;1.00;;;;;;5004579;28;20053;-76
2023/03/30 03:38:43;;;;;;;9.35;2.90;;;12.30;1.00;;;;;;4992852;28;20076;-73
2023/03/30 03:41:10;;;;;;;8.13;2.42;;;12.30;1.00;;;;;;5005474;28;20436;-72
2023/03/30 03:43:38;;;;;;;8.82;2.17;;;12.20;1.00;;;;;;4999737;28;20053;-72
2023/03/30 03:46:04;;;;;;;10.18;2.83;;;12.30;1.00;;;;;;5003633;28;20479;-72
2023/03/30 03:48:31;;;;;;;8.32;2.60;;;12.40;1.00;;;;;;4997631;28;20042;-72
2023/03/30 03:50:57;;;;;;;13.00;3.00;;;12.40;1.00;;;;;;5004106;28;20046;-73
2023/03/30 03:53:27;;;;;;;9.20;3.13;;;12.40;1.00;;;;;;5004365;28;20045;-72
2023/03/30 03:55:58;;;;;;;8.45;2.70;;;12.40;1.00;;;;;;5003954;28;20038;-73
2023/03/30 03:58:25;;;;;;;6.20;2.03;;;12.40;1.00;;;;;;5004896;28;20034;-72
2023/03/30 04:00:56;;;;;;;6.75;2.60;;;12.30;1.00;;;;;;5006352;28;20049;-72
2023/03/30 04:03:22;;;;;;;10.93;4.03;;;12.30;1.00;;;;;;5007419;28;20038;-72
2023/03/30 04:05:49;;;;;;;8.73;2.45;;;12.30;1.00;;;;;;4996994;28;20046;-73
2023/03/30 04:08:16;;;;;;;6.10;2.33;;;12.30;1.00;;;;;;5020466;28;20046;-76
2023/03/30 04:10:44;;;;;;;8.43;2.90;;;12.30;1.00;;;;;;5004820;28;20057;-74
2023/03/30 04:13:20;;;;;;;11.65;2.95;;;12.30;1.00;;;;;;4995718;28;20030;-73
2023/03/30 04:16:07;;;;;;;8.32;2.95;;;12.30;1.00;;;;;;4997313;28;20042;-73
2023/03/30 04:18:52;;;;;;;8.38;2.22;;;12.30;1.00;;;;;;5020126;28;20062;-72
2023/03/30 04:21:54;;;;;;;9.90;3.15;;;12.30;1.00;;;;;;4991598;28;20050;-72
2023/03/30 04:24:37;;;;;;;10.23;2.88;;;12.30;1.00;;;;;;5000353;28;20053;-72
2023/03/30 04:27:24;;;;;;;8.25;2.75;;;12.30;1.00;;;;;;5003957;28;20386;-71
2023/03/30 04:30:11;;;;;;;7.93;2.47;;;12.30;1.00;;;;;;5010682;28;20064;-72
2023/03/30 04:33:01;;;;;;;8.40;2.85;;;12.40;1.00;;;;;;5005996;28;20054;-75
2023/03/30 04:35:51;;;;;;;12.90;3.60;;;12.40;1.00;;;;;;4989279;28;20041;-73
2023/03/30 04:38:35;;;;;;;7.85;2.75;;;12.40;1.00;;;;;;5006071;28;20045;-73
2023/03/30 04:41:24;;;;;;;18.20;4.60;;;12.30;1.00;;;;;;4998236;28;20049;-73
2023/03/30 04:44:06;;;;;;;9.88;2.72;;;12.30;1.00;;;;;;4988654;28;20043;-73
2023/03/30 04:46:58;;;;;;;8.70;2.70;;;12.30;1.00;;;;;;5001127;28;20037;-72
2023/03/30 04:49:39;;;;;;;;;;;12.30;1.00;;;;;;5002609;28;20045;-71
2023/03/30 04:52:24;;;;;;;12.10;3.25;;;12.30;1.00;;;;;;5013010;28;20270;-73
2023/03/30 04:55:10;;;;;;;8.18;3.22;;;12.30;1.00;;;;;;5010942;28;20048;-74
2023/03/30 04:58:06;;;;;;;11.73;3.53;;;12.30;1.00;;;;;;4989207;28;20052;-73
2023/03/30 05:01:02;;;;;;;16.38;3.90;;;12.30;1.00;;;;;;4986380;28;20510;-73
2023/03/30 05:03:58;;;;;;;10.15;2.97;;;12.30;1.00;;;;;;4979469;28;20395;-73
2023/03/30 05:06:48;;;;;;;8.30;3.33;;;12.30;1.00;;;;;;4973757;28;20483;-73
2023/03/30 05:09:33;;;;;;;11.60;4.03;;;12.30;1.00;;;;;;5002362;28;20046;-73
2023/03/30 05:12:26;;;;;;;10.48;3.90;;;12.30;1.00;;;;;;4987512;28;20046;-73
2023/03/30 05:15:12;;;;;;;6.32;2.92;;;12.30;1.00;;;;;;5004447;28;20054;-73
2023/03/30 05:18:07;;;;;;;8.35;2.80;;;12.30;1.00;;;;;;5001105;28;20042;-73
2023/03/30 05:21:08;;;;;;;7.13;3.25;;;12.20;1.00;;;;;;4930148;29;20530;-74
2023/03/30 05:24:07;;;;;;;13.63;3.78;;;12.20;1.00;;;;;;4974528;28;20049;-73
2023/03/30 05:27:03;;;;;;;13.25;4.95;;;12.20;1.00;;;;;;4970824;28;20052;-73
2023/03/30 05:29:30;;;;;;;9.38;3.00;;;12.20;1.00;;;;;;5001475;28;20069;-74
2023/03/30 05:31:56;;;;;;;9.32;2.63;;;12.30;1.00;;;;;;5000650;28;20046;-75
2023/03/30 05:34:55;;;;;;;10.18;3.20;;;12.20;1.00;;;;;;4974545;28;20048;-73
2023/03/30 05:37:41;;;;;;;10.45;3.30;;;12.20;1.00;;;;;;4964219;28;20034;-73
2023/03/30 05:40:26;;;;;;;10.40;3.55;;;12.20;1.00;;;;;;5000169;28;20077;-74
2023/03/30 05:43:16;;;;;;;9.07;3.63;;;12.10;1.00;;;;;;4988131;28;20042;-78
2023/03/30 05:46:05;;;;;;;13.43;4.10;;;12.20;1.00;;;;;;4988202;28;20391;-72
2023/03/30 05:49:10;;;;;;;15.02;4.80;;;12.20;1.00;;;;;;4943102;29;20054;-73
2023/03/30 05:51:52;;;;;;;11.23;4.05;;;12.20;1.00;;;;;;4920906;29;20048;-72
2023/03/30 05:54:41;;;;;;;13.95;4.05;;;12.30;1.00;;;;;;4990358;28;20038;-71
2023/03/30 05:57:30;;;;;;;13.88;4.40;;;12.20;1.00;;;;;;4988673;28;20060;-71
2023/03/30 06:00:12;;;;;;;15.95;4.68;;;12.00;18.80;;;;;;4989787;28;20072;-71
2023/03/30 06:02:52;;;;;;;13.57;4.43;;;11.90;58.10;;;;;;4989744;28;20475;-72
2023/03/30 06:05:21;;;;;;;15.45;4.60;;;11.90;77.20;;;;;;4985480;28;20068;-71
2023/03/30 06:07:48;;;;;;;11.20;3.78;;;11.90;99.90;;;;;;4999503;28;20054;-71
2023/03/30 06:10:15;;;;;;;12.65;4.65;;;11.90;99.90;;;;;;5002110;28;20050;-71
2023/03/30 06:12:43;;;;;;;16.40;5.03;;;11.90;99.90;;;;;;4988983;28;20044;-73
2023/03/30 06:15:23;;;;;;;10.40;4.45;;;11.90;99.90;;;;;;4989853;28;20387;-71
2023/03/30 06:18:02;;;;;;;16.77;6.20;;;11.80;99.90;;;;;;4987167;28;20038;-73
2023/03/30 06:20:30;;;;;;;17.80;6.70;;;11.80;99.90;;;;;;5004251;28;20375;-72
2023/03/30 06:22:58;;;;;;;17.55;6.90;;;11.70;99.90;;;;;;4986360;28;20034;-73
2023/03/30 06:25:25;;;;;;;15.88;6.57;;;11.80;99.90;;;;;;4988337;28;20037;-73
2023/03/30 06:27:53;;;;;;;17.48;8.27;;;11.70;99.90;;;;;;4983719;28;20053;-73
2023/03/30 06:30:19;;;;;;;47.35;31.65;;;11.70;99.90;;;;;;5022367;28;20057;-73
2023/03/30 06:32:49;;;;;;;18.00;7.38;;;11.70;99.90;;;;;;5001250;28;20059;-73
2023/03/30 06:35:20;;;;;;;23.10;9.48;;;11.70;99.90;;;;;;5003193;28;20042;-73
2023/03/30 06:37:47;;;;;;;56.30;37.72;;;11.80;99.90;;;;;;5003442;28;20042;-73
2023/03/30 06:40:14;;;;;;;42.25;24.20;;;11.80;99.90;;;;;;4978011;28;20054;-73
2023/03/30 06:42:44;;;;;;;120.97;75.72;;;11.70;99.90;;;;;;5004797;28;20038;-76
2023/03/30 06:45:30;;;;;;;47.92;29.42;;;11.80;99.90;;;;;;4955163;28;20053;-72
2023/03/30 06:48:00;;;;;;;25.60;13.43;;;11.80;99.90;;;;;;5001096;28;20038;-72
2023/03/30 06:50:26;;;;;;;26.83;13.32;;;11.80;99.90;;;;;;5004799;28;20054;-73
2023/03/30 06:53:00;;;;;;;275.83;163.23;;;11.80;99.90;;;;;;5004153;28;20046;-72
2023/03/30 06:55:32;;;;;;;57.90;31.98;;;11.80;99.90;;;;;;5007004;28;20069;-73
2023/03/30 06:57:58;;;;;;;19.70;9.38;;;11.80;99.90;;;;;;5014824;28;20156;-73
2023/03/30 07:00:25;;;;;;;21.70;9.13;;;11.80;99.90;;;;;;5004175;28;20041;-73
2023/03/30 07:03:09;;;;;;;48.05;32.83;;;11.70;99.90;;;;;;5002146;28;20056;-73
2023/03/30 07:06:06;;;;;;;46.55;32.95;;;11.70;99.90;;;;;;4985093;28;20042;-73
2023/03/30 07:08:34;;;;;;;14.52;6.22;;;11.70;99.90;;;;;;4997222;28;20049;-73
2023/03/30 07:11:02;;;;;;;12.88;5.97;;;11.60;99.90;;;;;;4998542;28;20399;-74
2023/03/30 07:13:33;;;;;;;15.07;5.25;;;11.60;99.90;;;;;;4995671;28;20046;-73
2023/03/30 07:16:00;;;;;;;10.40;5.25;;;11.70;99.90;;;;;;4997878;28;20042;-73
2023/03/30 07:18:26;;;;;;;17.92;9.00;;;11.70;99.90;;;;;;5003391;28;20049;-73
2023/03/30 07:20:52;;;;;;;11.43;6.35;;;11.60;99.90;;;;;;4999595;28;20038;-74
2023/03/30 07:23:20;;;;;;;14.45;6.80;;;11.60;99.90;;;;;;5005186;28;20046;-73
2023/03/30 07:25:50;;;;;;;20.80;7.05;;;11.60;99.90;;;;;;5003723;28;20042;-73
2023/03/30 07:28:21;;;;;;;18.80;6.82;;;11.60;99.90;;;;;;4990493;28;20069;-73
2023/03/30 07:30:47;;;;;;;14.68;6.32;;;11.60;99.90;;;;;;4966692;28;20042;-73
2023/03/30 07:33:14;;;;;;;21.73;11.15;;;11.50;99.90;;;;;;4983657;28;20046;-73
2023/03/30 07:35:44;;;;;;;13.43;6.88;;;11.50;99.90;;;;;;4979873;28;20065;-72
2023/03/30 07:38:13;;;;;;;13.25;5.00;;;11.50;99.90;;;;;;4984056;28;20039;-73
2023/03/30 07:40:43;;;;;;;27.83;17.75;;;11.50;99.90;;;;;;4983536;28;20065;-74
2023/03/30 07:43:09;;;;;;;9.98;5.03;;;11.60;99.90;;;;;;4981503;28;20376;-73
2023/03/30 07:45:36;;;;;;;23.95;9.38;;;11.50;99.90;;;;;;4959388;28;20051;-73
2023/03/30 07:48:05;;;;;;;26.80;14.05;;;11.50;99.90;;;;;;4982455;28;20043;-73
2023/03/30 07:50:31;;;;;;;17.92;13.00;;;11.50;99.90;;;;;;4980594;28;20046;-73
2023/03/30 07:53:01;;;;;;;13.18;7.53;;;11.50;99.90;;;;;;4983503;28;20419;-73
2023/03/30 07:55:30;;;;;;;11.70;5.57;;;11.50;99.90;;;;;;4980645;28;20043;-76
2023/03/30 07:58:20;;;;;;;16.33;7.53;;;11.50;99.90;;;;;;4987176;28;20035;-75
2023/03/30 08:00:47;;;;;;;11.30;5.60;;;11.50;99.90;;;;;;4968375;28;20058;-76
2023/03/30 08:03:36;;;;;;;19.23;7.17;;;11.50;99.90;;;;;;4985624;28;20046;-73
2023/03/30 08:06:04;;;;;;;12.00;5.47;;;11.60;99.90;;;;;;4985475;28;20053;-73
2023/03/30 08:08:37;;;;;;;12.20;5.72;;;11.60;99.90;;;;;;4962091;28;20042;-73
2023/03/30 08:11:04;;;;;;;16.52;6.00;;;11.60;99.90;;;;;;4965389;28;20062;-73
2023/03/30 08:13:31;;;;;;;12.40;6.07;;;11.70;99.90;;;;;;4961523;28;20463;-73
2023/03/30 08:15:58;;;;;;;8.95;5.82;;;11.70;99.90;;;;;;4968620;28;20035;-73
2023/03/30 08:18:24;;;;;;;11.23;5.47;;;11.80;99.90;;;;;;4983516;28;20030;-73
2023/03/30 08:20:52;;;;;;;12.90;6.05;;;11.80;99.90;;;;;;4983038;28;20403;-73
2023/03/30 08:23:19;;;;;;;11.65;5.03;;;11.90;99.90;;;;;;4978407;28;20030;-73
2023/03/30 08:25:50;;;;;;;9.88;4.40;;;12.00;99.90;;;;;;4978124;28;20197;-75
2023/03/30 08:28:16;;;;;;;9.35;4.78;;;12.00;99.90;;;;;;4986504;28;20041;-72
2023/03/30 08:30:42;;;;;;;7.03;4.07;;;12.10;99.90;;;;;;5001314;28;20048;-73
2023/03/30 08:33:08;;;;;;;9.55;4.45;;;12.20;90.30;;;;;;5002253;28;20030;-73
2023/03/30 08:35:34;;;;;;;11.30;4.13;;;12.20;91.80;;;;;;5004109;28;20038;-72
2023/03/30 08:38:00;;;;;;;13.93;4.50;;;12.30;94.20;;;;;;4985244;28;20033;-73
2023/03/30 08:40:27;;;;;;;11.10;3.97;;;12.30;82.80;;;;;;4988083;28;20062;-74
2023/03/30 08:43:03;;;;;;;10.25;3.90;;;12.30;67.30;;;;;;4999916;28;20034;-73
2023/03/30 08:45:35;;;;;;;11.65;4.18;;;12.40;61.00;;;;;;4999731;28;20472;-73
2023/03/30 08:48:02;;;;;;;8.90;3.78;;;12.40;74.20;;;;;;5005151;28;20031;-74
2023/03/30 08:50:34;;;;;;;7.60;4.00;;;12.40;64.40;;;;;;5007139;28;20387;-74
2023/03/30 08:53:03;;;;;;;9.50;4.38;;;12.50;78.70;;;;;;5006977;28;20692;-74
2023/03/30 08:56:06;;;;;;;9.52;3.88;;;12.60;81.80;;;;;;5005202;28;20483;-73
2023/03/30 08:58:39;;;;;;;7.88;4.85;;;12.70;61.70;;;;;;4914397;29;20036;-73
2023/03/30 09:01:33;;;;;;;10.73;4.18;;;12.90;34.40;;;;;;4992542;28;20483;-73
2023/03/30 09:04:15;;;;;;;11.30;4.50;;;13.10;24.00;;;;;;4997105;28;20034;-73
2023/03/30 09:07:08;;;;;;;7.28;2.95;;;13.10;12.10;;;;;;5002514;28;20174;-73
2023/03/30 09:09:42;;;;;;;6.47;3.72;;;13.10;7.50;;;;;;4974483;28;20043;-80
2023/03/30 09:12:39;;;;;;;13.23;4.35;;;13.10;19.30;;;;;;4991971;28;20387;-73
2023/03/30 09:15:24;;;;;;;7.85;4.20;;;13.10;19.60;;;;;;5001725;28;20487;-73
2023/03/30 09:18:21;;;;;;;9.93;3.78;;;13.10;14.40;;;;;;5001915;28;20480;-73
2023/03/30 09:20:50;;;;;;;10.23;3.67;;;13.10;8.10;;;;;;5001500;28;20057;-74
2023/03/30 09:23:17;;;;;;;8.80;4.72;;;13.30;1.00;;;;;;4999815;28;20042;-73
2023/03/30 09:25:52;;;;;;;8.98;3.08;;;13.40;1.00;;;;;;5004147;28;20030;-73
2023/03/30 09:28:21;;;;;;;11.27;5.05;;;13.40;1.00;;;;;;5005120;28;20053;-73
2023/03/30 09:30:54;;;;;;;6.63;4.05;;;13.40;1.00;;;;;;5007350;28;20050;-73
2023/03/30 09:33:32;;;;;;;10.80;3.72;;;13.40;1.00;;;;;;5005805;28;20038;-74
2023/03/30 09:36:04;;;;;;;14.95;4.53;;;13.40;3.70;;;;;;5012120;28;20026;-74
2023/03/30 09:38:31;;;;;;;7.18;3.67;;;13.40;1.00;;;;;;5005801;28;20030;-74
2023/03/30 09:41:18;;;;;;;7.28;4.05;;;13.30;2.70;;;;;;5007532;28;20057;-73
2023/03/30 09:43:45;;;;;;;10.82;3.58;;;13.40;7.90;;;;;;5001497;28;20034;-73
2023/03/30 09:46:13;;;;;;;9.23;3.75;;;13.40;1.90;;;;;;4986809;28;20042;-73
2023/03/30 09:48:42;;;;;;;9.65;4.22;;;13.50;10.40;;;;;;5001838;28;20025;-73
2023/03/30 09:51:25;;;;;;;10.40;3.75;;;13.80;1.00;;;;;;5003662;28;20460;-73
2023/03/30 09:53:59;;;;;;;5.95;2.03;;;14.00;1.00;;;;;;4998449;28;20034;-74
2023/03/30 09:56:33;;;;;;;5.72;2.30;;;14.10;1.00;;;;;;5001168;28;20037;-73
2023/03/30 09:59:20;;;;;;;7.88;2.08;;;14.20;1.00;;;;;;4993415;28;20034;-73
2023/03/30 10:01:46;;;;;;;7.22;2.60;;;14.20;1.00;;;;;;5004496;28;20494;-73
2023/03/30 10:04:14;;;;;;;5.60;2.70;;;14.10;1.00;;;;;;5003892;28;20121;-73
2023/03/30 10:06:48;;;;;;;5.35;2.50;;;14.10;1.00;;;;;;5002964;28;20034;-72
2023/03/30 10:09:20;;;;;;;7.78;2.28;;;14.20;1.00;;;;;;5004597;28;20031;-72
2023/03/30 10:11:51;;;;;;;6.13;2.00;;;14.30;1.00;;;;;;5002404;28;20050;-72
2023/03/30 10:14:33;;;;;;;3.83;1.80;;;14.50;99.90;;;;;;5002052;28;20038;-73
2023/03/30 10:17:00;;;;;;;5.15;2.20;;;14.70;99.90;;;;;;5000255;28;20414;-73
2023/03/30 10:19:27;;;;;;;7.10;2.38;;;14.90;99.90;;;;;;5004220;28;20033;-72
2023/03/30 10:21:56;;;;;;;4.60;1.73;;;14.90;99.90;;;;;;5002033;28;20049;-73
2023/03/30 10:24:28;;;;;;;5.30;2.30;;;15.00;99.90;;;;;;5004781;28;20057;-73
2023/03/30 10:26:56;;;;;;;4.35;2.08;;;15.00;99.90;;;;;;5002542;28;20039;-74
2023/03/30 10:29:27;;;;;;;7.63;2.30;;;15.00;99.90;;;;;;4999978;28;20046;-77
2023/03/30 10:32:02;;;;;;;6.15;2.67;;;15.00;99.90;;;;;;5002976;28;20034;-74
2023/03/30 10:34:31;;;;;;;4.03;1.67;;;15.00;99.90;;;;;;5003089;28;20463;-73
2023/03/30 10:36:58;;;;;;;5.80;2.33;;;15.10;99.90;;;;;;5002742;28;20033;-74
2023/03/30 10:39:32;;;;;;;5.70;2.20;;;15.10;99.90;;;;;;5004076;28;20065;-79
2023/03/30 10:42:03;;;;;;;4.28;1.77;;;15.20;99.90;;;;;;5002279;28;20046;-73
2023/03/30 10:44:33;;;;;;;4.78;1.65;;;15.20;99.90;;;;;;5001503;28;20035;-73
2023/03/30 10:47:13;;;;;;;6.45;2.13;;;15.20;99.90;;;;;;5002504;28;20029;-75
2023/03/30 10:49:42;;;;;;;5.60;1.95;;;15.20;99.90;;;;;;5002853;28;20152;-74
2023/03/30 10:52:40;;;;;;;4.90;2.05;;;15.20;99.90;;;;;;4999130;28;20030;-75
2023/03/30 10:55:22;;;;;;;6.63;2.70;;;15.20;99.90;;;;;;5003282;28;20046;-72
2023/03/30 10:58:18;;;;;;;4.63;2.00;;;15.20;99.90;;;;;;4997836;28;20057;-72
2023/03/30 11:01:03;;;;;;;6.10;1.95;;;15.30;99.90;;;;;;4996287;28;20054;-74
2023/03/30 11:03:31;;;;;;;5.93;1.92;;;15.30;99.90;;;;;;4985999;28;20042;-72
2023/03/30 11:06:23;;;;;;;4.40;1.75;;;15.70;99.90;;;;;;5002466;28;20030;-72
2023/03/30 11:08:52;;;;;;;3.13;1.77;;;15.70;99.90;;;;;;4982496;28;20109;-73
2023/03/30 11:11:26;;;;;;;4.47;1.88;;;15.80;99.90;;;;;;5000933;28;20046;-73
2023/03/30 11:14:00;;;;;;;3.95;1.73;;;15.90;99.90;;;;;;5001715;28;20034;-73
2023/03/30 11:16:44;;;;;;;6.93;2.85;;;16.10;99.90;;;;;;5002966;28;20042;-73
2023/03/30 11:19:25;;;;;;;6.43;1.63;;;16.20;99.90;;;;;;4995949;28;20039;-75
2023/03/30 11:22:01;;;;;;;4.50;1.80;;;16.00;99.90;;;;;;5001782;28;20499;-73
2023/03/30 11:24:27;;;;;;;6.40;1.85;;;16.10;99.90;;;;;;5002189;28;20404;-73
2023/03/30 11:27:18;;;;;;;5.60;1.80;;;16.20;99.90;;;;;;4997643;28;20046;-74
2023/03/30 11:30:03;;;;;;;;;;;16.30;99.90;;;;;;4993345;28;20052;-75
2023/03/30 11:32:31;;;;;;;6.18;1.90;;;16.60;99.90;;;;;;4998442;28;19909;-75
2023/03/30 11:35:16;;;;;;;5.60;1.70;;;16.70;99.90;;;;;;4997618;28;20380;-75
2023/03/30 11:38:12;;;;;;;4.68;1.85;;;16.50;99.90;;;;;;4994707;28;20052;-76
2023/03/30 11:40:45;;;;;;;4.20;1.45;;;16.40;99.90;;;;;;4992711;28;20038;-74
2023/03/30 11:43:16;;;;;;;4.30;1.67;;;16.30;99.90;;;;;;4999300;28;20041;-75
2023/03/30 11:45:48;;;;;;;5.53;1.70;;;16.30;99.90;;;;;;4999304;28;20042;-76
2023/03/30 11:48:35;;;;;;;8.45;1.95;;;16.20;99.90;;;;;;4990641;28;20041;-74
2023/03/30 11:51:13;;;;;;;9.95;1.77;;;16.20;99.90;;;;;;5004114;28;20029;-75
2023/03/30 11:53:57;;;;;;;4.05;1.50;;;16.50;99.90;;;;;;4993958;28;20053;-75
2023/03/30 11:56:54;;;;;;;7.78;1.95;;;16.80;99.90;;;;;;4998801;28;20029;-75
2023/03/30 11:59:37;;;;;;;5.65;1.35;;;16.70;99.90;;;;;;5005925;28;20030;-74
2023/03/30 12:02:38;;;;;;;4.68;1.42;;;16.80;99.90;;;;;;4997062;28;20042;-73
2023/03/30 12:05:22;;;;;;;5.35;1.10;;;16.60;99.90;;;;;;4996190;28;20395;-75
2023/03/30 12:07:54;;;;;;;8.38;1.50;;;16.60;99.90;;;;;;5002748;28;20031;-73
2023/03/30 12:10:40;;;;;;;4.07;1.15;;;16.70;99.90;;;;;;4999575;28;20057;-73
2023/03/30 12:13:15;;;;;;;6.43;1.45;;;16.60;99.90;;;;;;4989879;28;20050;-74
2023/03/30 12:16:02;;;;;;;2.35;1.10;;;16.50;99.90;;;;;;5001586;28;20053;-74
2023/03/30 12:18:47;;;;;;;8.25;2.35;;;16.40;99.90;;;;;;4995936;28;20035;-74
2023/03/30 12:21:31;;;;;;;7.07;1.63;;;16.40;99.90;;;;;;5008898;28;20047;-73
2023/03/30 12:24:28;;;;;;;6.70;1.45;;;16.30;99.90;;;;;;5001270;28;20415;-73
2023/03/30 12:26:55;;;;;;;7.15;1.48;;;16.30;99.90;;;;;;5007538;28;20033;-73
2023/03/30 12:29:21;;;;;;;4.45;1.50;;;16.40;99.90;;;;;;4999841;28;20041;-73
2023/03/30 12:32:01;;;;;;;4.63;0.90;;;16.40;99.90;;;;;;5002389;28;20046;-77
2023/03/30 12:34:33;;;;;;;3.17;0.85;;;16.50;99.90;;;;;;5004767;28;20026;-74
2023/03/30 12:37:05;;;;;;;5.25;1.38;;;16.70;99.90;;;;;;4996061;28;20030;-74
2023/03/30 12:39:43;;;;;;;3.55;0.90;;;16.80;99.90;;;;;;5004190;28;20030;-74
2023/03/30 12:42:34;;;;;;;4.38;0.80;;;16.60;99.90;;;;;;5010745;28;20061;-73
2023/03/30 12:45:19;;;;;;;4.00;1.00;;;16.70;99.90;;;;;;5010082;28;20402;-74
2023/03/30 12:47:51;;;;;;;3.80;1.20;;;16.70;99.90;;;;;;5001673;28;20034;-74
2023/03/30 12:50:26;;;;;;;4.15;0.82;;;17.10;99.90;;;;;;5002552;28;20030;-73
2023/03/30 12:53:01;;;;;;;4.55;0.95;;;17.40;99.90;;;;;;5003499;28;20387;-74
2023/03/30 12:55:41;;;;;;;7.22;1.10;;;17.10;99.90;;;;;;5006941;28;20034;-74
2023/03/30 12:58:29;;;;;;;9.73;1.05;;;16.80;99.90;;;;;;5007672;28;20050;-74
2023/03/30 13:01:19;;;;;;;3.45;1.02;;;16.70;99.90;;;;;;5013959;28;20471;-74
2023/03/30 13:04:20;;;;;;;5.35;1.65;;;15.90;99.90;;;;;;5003165;28;20385;-73
2023/03/30 13:06:55;;;;;;;3.08;0.95;;;15.40;99.90;;;;;;4988671;28;20058;-75
2023/03/30 13:09:24;;;;;;;5.25;1.38;;;15.40;99.90;;;;;;5002856;28;20037;-77
2023/03/30 13:11:53;;;;;;;6.15;1.10;;;16.00;99.90;;;;;;5003804;28;20039;-78
2023/03/30 13:14:34;;;;;;;4.18;0.77;;;16.30;99.90;;;;;;5006037;28;20482;-75
2023/03/30 13:17:00;;;;;;;4.05;0.70;;;16.60;99.90;;;;;;5002298;28;20057;-74
2023/03/30 13:19:40;;;;;;;2.78;0.70;;;16.70;99.90;;;;;;5006593;28;20034;-76
2023/03/30 13:22:10;;;;;;;6.15;1.00;;;16.90;99.90;;;;;;5006237;28;20057;-74
2023/03/30 13:24:51;;;;;;;5.57;1.33;;;17.30;99.90;;;;;;5002200;28;20041;-74
2023/03/30 13:27:17;;;;;;;2.42;1.02;;;17.40;99.90;;;;;;5001313;28;20038;-74
2023/03/30 13:29:52;;;;;;;3.35;0.75;;;17.60;99.90;;;;;;5009663;28;20046;-74
2023/03/30 13:32:33;;;;;;;2.22;0.57;;;17.80;99.90;;;;;;4997289;28;20365;-74